createdAt,value
2017-05-10T00:00:12.832Z,951.14
2017-05-10T00:01:12.490Z,951.13
2017-05-10T00:02:10.685Z,951.10
2017-05-10T00:03:12.575Z,951.10
2017-05-10T00:04:13.547Z,951.03
2017-05-10T00:05:13.165Z,951.05
2017-05-10T00:06:13.541Z,950.99
2017-05-10T00:07:13.245Z,950.96
2017-05-10T00:08:12.818Z,950.93
2017-05-10T00:09:11.489Z,950.95
2017-05-10T00:10:13.736Z,950.94
2017-05-10T00:11:12.991Z,950.95
2017-05-10T00:12:12.996Z,950.93
2017-05-10T00:13:12.795Z,950.94
2017-05-10T00:14:13.763Z,950.97
2017-05-10T00:15:13.501Z,950.95
2017-05-10T00:16:14.838Z,950.96
2017-05-10T00:17:11.717Z,950.95
2017-05-10T00:18:14.049Z,950.91
2017-05-10T00:19:12.854Z,950.93
2017-05-10T00:20:13.031Z,950.91
2017-05-10T00:21:13.542Z,950.92
2017-05-10T00:22:13.070Z,950.93
2017-05-10T00:23:10.484Z,950.92
2017-05-10T00:24:14.684Z,950.89
2017-05-10T00:25:10.301Z,950.89
2017-05-10T00:26:10.761Z,950.85
2017-05-10T00:27:12.780Z,950.88
2017-05-10T00:28:12.577Z,950.85
2017-05-10T00:29:13.381Z,950.83
2017-05-10T00:30:13.649Z,950.82
2017-05-10T00:31:13.441Z,950.79
2017-05-10T00:32:13.510Z,950.80
2017-05-10T00:33:13.022Z,950.80
2017-05-10T00:34:13.468Z,950.78
2017-05-10T00:35:12.946Z,950.77
2017-05-10T00:36:12.631Z,950.76
2017-05-10T00:37:10.680Z,950.79
2017-05-10T00:38:13.468Z,950.77
2017-05-10T00:39:13.848Z,950.77
2017-05-10T00:40:12.896Z,950.78
2017-05-10T00:41:14.446Z,950.75
2017-05-10T00:42:13.049Z,950.75
2017-05-10T00:43:12.815Z,950.75
2017-05-10T00:44:12.882Z,950.74
2017-05-10T00:45:13.578Z,950.76
2017-05-10T00:46:13.487Z,950.72
2017-05-10T00:47:11.691Z,950.77
2017-05-10T00:48:12.591Z,950.72
2017-05-10T00:49:13.342Z,950.75
2017-05-10T00:50:11.566Z,950.75
2017-05-10T00:51:13.898Z,950.74
2017-05-10T00:52:14.328Z,950.67
2017-05-10T00:53:11.410Z,950.64
2017-05-10T00:54:14.498Z,950.67
2017-05-10T00:55:13.437Z,950.65
2017-05-10T00:56:10.658Z,950.63
2017-05-10T00:57:12.737Z,950.60
2017-05-10T00:58:12.889Z,950.60
2017-05-10T00:59:13.719Z,950.61
2017-05-10T01:00:13.556Z,950.62
2017-05-10T01:01:13.225Z,950.63
2017-05-10T01:02:13.673Z,950.58
2017-05-10T01:03:13.126Z,950.58
2017-05-10T01:04:12.958Z,950.65
2017-05-10T01:05:10.921Z,950.64
2017-05-10T01:06:13.008Z,950.62
2017-05-10T01:07:12.917Z,950.60
2017-05-10T01:08:13.053Z,950.56
2017-05-10T01:09:13.916Z,950.56
2017-05-10T01:10:13.190Z,950.55
2017-05-10T01:11:13.064Z,950.55
2017-05-10T01:12:13.588Z,950.54
2017-05-10T01:13:14.315Z,950.53
2017-05-10T01:14:12.973Z,950.52
2017-05-10T01:15:14.037Z,950.54
2017-05-10T01:16:10.547Z,950.50
2017-05-10T01:17:15.705Z,950.49
2017-05-10T01:18:11.473Z,950.47
2017-05-10T01:19:13.233Z,950.47
2017-05-10T01:20:13.370Z,950.46
2017-05-10T01:21:13.048Z,950.44
2017-05-10T01:22:13.348Z,950.42
2017-05-10T01:23:13.239Z,950.42
2017-05-10T01:24:13.041Z,950.40
2017-05-10T01:25:13.037Z,950.40
2017-05-10T01:26:13.343Z,950.37
2017-05-10T01:27:11.608Z,950.41
2017-05-10T01:28:13.020Z,950.41
2017-05-10T01:29:12.544Z,950.39
2017-05-10T01:30:15.106Z,950.37
2017-05-10T01:31:12.934Z,950.38
2017-05-10T01:32:12.716Z,950.32
2017-05-10T01:33:13.484Z,950.36
2017-05-10T01:34:12.414Z,950.32
2017-05-10T01:35:12.789Z,950.31
2017-05-10T01:36:12.483Z,950.33
2017-05-10T01:37:13.025Z,950.36
2017-05-10T01:38:12.957Z,950.33
2017-05-10T01:39:14.264Z,950.33
2017-05-10T01:40:09.947Z,950.30
2017-05-10T01:41:13.911Z,950.30
2017-05-10T01:42:12.739Z,950.29
2017-05-10T01:43:14.874Z,950.29
2017-05-10T01:44:12.763Z,950.25
2017-05-10T01:45:14.178Z,950.28
2017-05-10T01:46:13.537Z,950.26
2017-05-10T01:47:13.516Z,950.25
2017-05-10T01:48:12.953Z,950.25
2017-05-10T01:49:14.293Z,950.22
2017-05-10T01:50:13.980Z,950.17
2017-05-10T01:51:12.777Z,950.24
2017-05-10T01:52:12.498Z,950.24
2017-05-10T01:53:11.297Z,950.22
2017-05-10T01:54:14.461Z,950.24
2017-05-10T01:55:13.623Z,950.17
2017-05-10T01:56:13.103Z,950.17
2017-05-10T01:57:13.928Z,950.20
2017-05-10T01:58:11.161Z,950.17
2017-05-10T01:59:11.040Z,950.16
2017-05-10T02:00:12.828Z,950.16
2017-05-10T02:01:13.417Z,950.21
2017-05-10T02:02:12.985Z,950.18
2017-05-10T02:03:09.638Z,950.19
2017-05-10T02:04:12.798Z,950.19
2017-05-10T02:05:13.336Z,950.16
2017-05-10T02:06:13.027Z,950.16
2017-05-10T02:07:12.857Z,950.12
2017-05-10T02:08:13.032Z,950.10
2017-05-10T02:09:16.032Z,950.11
2017-05-10T02:10:12.934Z,950.08
2017-05-10T02:11:13.486Z,950.04
2017-05-10T02:12:12.717Z,950.06
2017-05-10T02:13:13.208Z,950.05
2017-05-10T02:14:10.979Z,950.09
2017-05-10T02:15:13.307Z,950.04
2017-05-10T02:16:13.292Z,950.05
2017-05-10T02:17:13.015Z,950.02
2017-05-10T02:18:13.442Z,950.00
2017-05-10T02:19:12.996Z,949.95
2017-05-10T02:20:13.284Z,949.94
2017-05-10T02:21:13.657Z,949.95
2017-05-10T02:22:13.329Z,949.98
2017-05-10T02:23:14.001Z,949.89
2017-05-10T02:24:13.911Z,949.88
2017-05-10T02:25:12.991Z,949.89
2017-05-10T02:26:12.845Z,949.89
2017-05-10T02:27:12.593Z,949.89
2017-05-10T02:28:13.287Z,949.84
2017-05-10T02:29:13.644Z,949.81
2017-05-10T02:30:13.645Z,949.78
2017-05-10T02:31:14.263Z,949.76
2017-05-10T02:32:13.071Z,949.71
2017-05-10T02:33:13.154Z,949.68
2017-05-10T02:34:13.049Z,949.65
2017-05-10T02:35:12.773Z,949.66
2017-05-10T02:36:12.823Z,949.61
2017-05-10T02:37:13.289Z,949.67
2017-05-10T02:38:13.696Z,949.62
2017-05-10T02:39:14.574Z,949.66
2017-05-10T02:40:14.593Z,949.64
2017-05-10T02:41:16.767Z,949.64
2017-05-10T02:42:12.761Z,949.61
2017-05-10T02:43:10.827Z,949.57
2017-05-10T02:44:13.486Z,949.61
2017-05-10T02:45:14.457Z,949.57
2017-05-10T02:46:11.402Z,949.58
2017-05-10T02:47:15.258Z,949.54
2017-05-10T02:48:13.388Z,949.56
2017-05-10T02:49:13.021Z,949.61
2017-05-10T02:50:12.971Z,949.63
2017-05-10T02:51:12.721Z,949.61
2017-05-10T02:52:12.719Z,949.61
2017-05-10T02:53:13.901Z,949.56
2017-05-10T02:54:14.010Z,949.50
2017-05-10T02:55:13.527Z,949.54
2017-05-10T02:56:10.891Z,949.49
2017-05-10T02:57:13.421Z,949.48
2017-05-10T02:58:13.091Z,949.49
2017-05-10T02:59:12.788Z,949.45
2017-05-10T03:00:12.604Z,949.45
2017-05-10T03:01:13.200Z,949.43
2017-05-10T03:02:13.213Z,949.45
2017-05-10T03:03:14.483Z,949.44
2017-05-10T03:04:13.620Z,949.41
2017-05-10T03:05:10.915Z,949.44
2017-05-10T03:06:12.790Z,949.52
2017-05-10T03:07:13.545Z,949.45
2017-05-10T03:08:13.139Z,949.44
2017-05-10T03:09:15.759Z,949.41
2017-05-10T03:10:11.075Z,949.41
2017-05-10T03:11:13.372Z,949.41
2017-05-10T03:12:12.779Z,949.42
2017-05-10T03:13:10.259Z,949.37
2017-05-10T03:14:13.317Z,949.39
2017-05-10T03:15:13.223Z,949.33
2017-05-10T03:16:12.917Z,949.31
2017-05-10T03:17:13.188Z,949.29
2017-05-10T03:18:12.759Z,949.29
2017-05-10T03:19:13.330Z,949.30
2017-05-10T03:20:13.311Z,949.27
2017-05-10T03:21:12.974Z,949.28
2017-05-10T03:22:12.680Z,949.29
2017-05-10T03:23:11.633Z,949.28
2017-05-10T03:24:14.798Z,949.29
2017-05-10T03:25:10.198Z,949.33
2017-05-10T03:26:12.724Z,949.27
2017-05-10T03:27:11.267Z,949.31
2017-05-10T03:28:13.170Z,949.25
2017-05-10T03:29:12.783Z,949.23
2017-05-10T03:30:12.540Z,949.21
2017-05-10T03:31:15.634Z,949.22
2017-05-10T03:32:14.137Z,949.22
2017-05-10T03:33:10.512Z,949.22
2017-05-10T03:34:13.069Z,949.22
2017-05-10T03:35:13.291Z,949.21
2017-05-10T03:36:11.155Z,949.22
2017-05-10T03:37:12.663Z,949.19
2017-05-10T03:38:13.686Z,949.17
2017-05-10T03:39:15.417Z,949.21
2017-05-10T03:40:13.181Z,949.23
2017-05-10T03:41:14.584Z,949.21
2017-05-10T03:42:13.009Z,949.18
2017-05-10T03:43:12.791Z,949.18
2017-05-10T03:44:12.392Z,949.17
2017-05-10T03:45:13.455Z,949.17
2017-05-10T03:46:13.422Z,949.13
2017-05-10T03:47:13.156Z,949.14
2017-05-10T03:48:13.537Z,949.15
2017-05-10T03:49:13.656Z,949.12
2017-05-10T03:50:12.576Z,949.13
2017-05-10T03:51:13.402Z,949.17
2017-05-10T03:52:13.600Z,949.19
2017-05-10T03:53:13.615Z,949.19
2017-05-10T03:54:14.233Z,949.17
2017-05-10T03:55:13.469Z,949.18
2017-05-10T03:56:13.136Z,949.15
2017-05-10T03:57:12.784Z,949.16
2017-05-10T03:58:10.799Z,949.17
2017-05-10T03:59:13.821Z,949.14
2017-05-10T04:00:12.763Z,949.16
2017-05-10T04:01:13.071Z,949.16
2017-05-10T04:02:13.629Z,949.16
2017-05-10T04:03:13.671Z,949.17
2017-05-10T04:04:13.697Z,949.14
2017-05-10T04:05:11.044Z,949.13
2017-05-10T04:06:14.578Z,949.12
2017-05-10T04:07:13.123Z,949.12
2017-05-10T04:08:10.931Z,949.11
2017-05-10T04:09:14.514Z,949.12
2017-05-10T04:10:13.332Z,949.15
2017-05-10T04:11:12.823Z,949.16
2017-05-10T04:12:13.138Z,949.18
2017-05-10T04:13:12.976Z,949.17
2017-05-10T04:14:12.802Z,949.14
2017-05-10T04:15:12.384Z,949.13
2017-05-10T04:16:13.212Z,949.18
2017-05-10T04:17:13.135Z,949.19
2017-05-10T04:18:13.200Z,949.15
2017-05-10T04:19:13.027Z,949.16
2017-05-10T04:20:14.657Z,949.19
2017-05-10T04:21:13.848Z,949.16
2017-05-10T04:22:12.615Z,949.10
2017-05-10T04:23:13.535Z,949.13
2017-05-10T04:24:14.146Z,949.11
2017-05-10T04:25:13.890Z,949.12
2017-05-10T04:26:13.197Z,949.08
2017-05-10T04:27:12.795Z,949.08
2017-05-10T04:28:12.747Z,949.04
2017-05-10T04:29:14.773Z,949.00
2017-05-10T04:30:12.669Z,949.04
2017-05-10T04:31:12.966Z,949.00
2017-05-10T04:32:13.140Z,949.03
2017-05-10T04:33:12.886Z,948.99
2017-05-10T04:34:15.563Z,949.01
2017-05-10T04:35:12.333Z,948.99
2017-05-10T04:36:13.323Z,949.02
2017-05-10T04:37:13.568Z,949.05
2017-05-10T04:38:16.845Z,949.04
2017-05-10T04:39:13.872Z,949.03
2017-05-10T04:40:13.268Z,949.07
2017-05-10T04:41:14.714Z,949.06
2017-05-10T04:42:11.446Z,949.07
2017-05-10T04:43:12.615Z,949.07
2017-05-10T04:44:10.941Z,949.09
2017-05-10T04:45:12.933Z,949.05
2017-05-10T04:46:13.406Z,949.06
2017-05-10T04:47:13.490Z,949.07
2017-05-10T04:48:13.395Z,949.05
2017-05-10T04:49:13.620Z,949.07
2017-05-10T04:50:13.690Z,949.05
2017-05-10T04:51:13.930Z,949.07
2017-05-10T04:52:12.766Z,949.02
2017-05-10T04:53:14.304Z,949.04
2017-05-10T04:54:14.701Z,949.06
2017-05-10T04:55:11.921Z,949.09
2017-05-10T04:56:10.070Z,949.07
2017-05-10T04:57:13.537Z,949.08
2017-05-10T04:58:13.945Z,949.07
2017-05-10T04:59:12.941Z,949.08
2017-05-10T05:00:12.995Z,949.10
2017-05-10T05:01:13.104Z,949.04
2017-05-10T05:02:12.932Z,949.03
2017-05-10T05:03:15.220Z,949.06
2017-05-10T05:04:13.076Z,949.07
2017-05-10T05:05:14.848Z,949.06
2017-05-10T05:06:12.861Z,949.06
2017-05-10T05:07:13.309Z,949.07
2017-05-10T05:08:13.640Z,949.07
2017-05-10T05:09:18.034Z,949.05
2017-05-10T05:10:13.714Z,949.02
2017-05-10T05:11:14.558Z,949.01
2017-05-10T05:12:14.305Z,949.00
2017-05-10T05:13:13.553Z,949.01
2017-05-10T05:14:10.504Z,948.98
2017-05-10T05:15:13.353Z,948.98
2017-05-10T05:16:13.775Z,949.00
2017-05-10T05:17:13.511Z,949.04
2017-05-10T05:18:09.871Z,949.04
2017-05-10T05:19:13.034Z,949.01
2017-05-10T05:20:13.400Z,949.03
2017-05-10T05:21:13.220Z,949.02
2017-05-10T05:22:13.605Z,949.02
2017-05-10T05:23:11.660Z,949.01
2017-05-10T05:24:13.956Z,949.02
2017-05-10T05:25:12.674Z,949.01
2017-05-10T05:26:12.948Z,949.03
2017-05-10T05:27:12.838Z,949.03
2017-05-10T05:28:13.027Z,949.01
2017-05-10T05:29:12.902Z,948.98
2017-05-10T05:30:12.680Z,948.98
2017-05-10T05:31:13.999Z,948.97
2017-05-10T05:32:13.792Z,948.95
2017-05-10T05:33:11.008Z,948.97
2017-05-10T05:34:12.930Z,948.99
2017-05-10T05:35:13.055Z,949.00
2017-05-10T05:36:13.547Z,949.00
2017-05-10T05:37:13.381Z,948.99
2017-05-10T05:38:13.231Z,949.02
2017-05-10T05:39:14.261Z,948.96
2017-05-10T05:40:12.854Z,949.06
2017-05-10T05:41:13.235Z,949.09
2017-05-10T05:42:09.991Z,949.05
2017-05-10T05:43:12.997Z,949.06
2017-05-10T05:44:13.470Z,949.06
2017-05-10T05:45:13.566Z,949.04
2017-05-10T05:46:13.362Z,949.01
2017-05-10T05:47:13.573Z,949.04
2017-05-10T05:48:13.650Z,949.04
2017-05-10T05:49:13.310Z,949.01
2017-05-10T05:50:13.673Z,949.05
2017-05-10T05:51:13.383Z,949.01
2017-05-10T05:52:13.078Z,949.04
2017-05-10T05:53:13.420Z,949.04
2017-05-10T05:54:14.381Z,948.99
2017-05-10T05:55:13.635Z,948.99
2017-05-10T05:56:13.421Z,949.01
2017-05-10T05:57:13.560Z,948.99
2017-05-10T05:58:13.449Z,949.02
2017-05-10T05:59:13.362Z,948.98
2017-05-10T06:00:14.271Z,949.04
2017-05-10T06:01:13.843Z,949.02
2017-05-10T06:02:15.018Z,949.00
2017-05-10T06:03:13.409Z,949.00
2017-05-10T06:04:13.634Z,948.99
2017-05-10T06:05:10.184Z,948.99
2017-05-10T06:06:13.248Z,948.97
2017-05-10T06:07:12.915Z,948.94
2017-05-10T06:08:13.310Z,948.96
2017-05-10T06:09:13.696Z,948.92
2017-05-10T06:10:13.715Z,948.94
2017-05-10T06:11:12.736Z,948.95
2017-05-10T06:12:14.039Z,948.92
2017-05-10T06:13:12.779Z,948.94
2017-05-10T06:14:12.648Z,948.94
2017-05-10T06:15:13.592Z,948.92
2017-05-10T06:16:13.770Z,948.91
2017-05-10T06:17:13.241Z,948.90
2017-05-10T06:18:13.494Z,948.92
2017-05-10T06:19:13.069Z,948.91
2017-05-10T06:20:12.829Z,948.89
2017-05-10T06:21:12.473Z,948.93
2017-05-10T06:22:13.972Z,948.89
2017-05-10T06:23:13.142Z,948.88
2017-05-10T06:24:14.690Z,948.87
2017-05-10T06:25:13.261Z,948.88
2017-05-10T06:26:13.772Z,948.90
2017-05-10T06:27:12.505Z,948.86
2017-05-10T06:28:13.121Z,948.84
2017-05-10T06:29:14.522Z,948.86
2017-05-10T06:30:13.312Z,948.89
2017-05-10T06:31:13.134Z,948.84
2017-05-10T06:32:12.993Z,948.84
2017-05-10T06:33:13.102Z,948.87
2017-05-10T06:34:13.154Z,948.85
2017-05-10T06:35:13.489Z,948.82
2017-05-10T06:36:13.957Z,948.82
2017-05-10T06:37:12.530Z,948.82
2017-05-10T06:38:13.590Z,948.79
2017-05-10T06:39:16.072Z,948.77
2017-05-10T06:40:13.669Z,948.77
2017-05-10T06:41:13.602Z,948.74
2017-05-10T06:42:13.513Z,948.74
2017-05-10T06:43:13.752Z,948.77
2017-05-10T06:44:13.908Z,948.77
2017-05-10T06:45:13.873Z,948.76
2017-05-10T06:46:12.802Z,948.80
2017-05-10T06:47:12.802Z,948.77
2017-05-10T06:48:12.804Z,948.80
2017-05-10T06:49:12.634Z,948.76
2017-05-10T06:50:13.800Z,948.80
2017-05-10T06:51:12.780Z,948.78
2017-05-10T06:52:13.013Z,948.79
2017-05-10T06:53:12.979Z,948.79
2017-05-10T06:54:13.975Z,948.81
2017-05-10T06:55:10.799Z,948.74
2017-05-10T06:56:11.195Z,948.77
2017-05-10T06:57:14.276Z,948.77
2017-05-10T06:58:13.865Z,948.77
2017-05-10T06:59:14.527Z,948.82
2017-05-10T07:00:14.056Z,948.74
2017-05-10T07:01:14.516Z,948.77
2017-05-10T07:02:14.825Z,948.79
2017-05-10T07:03:13.177Z,948.79
2017-05-10T07:04:13.529Z,948.78
2017-05-10T07:05:14.277Z,948.78
2017-05-10T07:06:13.343Z,948.78
2017-05-10T07:07:10.727Z,948.77
2017-05-10T07:08:14.346Z,948.76
2017-05-10T07:09:14.489Z,948.76
2017-05-10T07:10:13.470Z,948.79
2017-05-10T07:11:14.266Z,948.76
2017-05-10T07:12:13.994Z,948.77
2017-05-10T07:13:14.757Z,948.77
2017-05-10T07:14:13.158Z,948.78
2017-05-10T07:15:11.494Z,948.81
2017-05-10T07:16:13.303Z,948.78
2017-05-10T07:17:13.420Z,948.80
2017-05-10T07:18:13.481Z,948.80
2017-05-10T07:19:15.119Z,948.75
2017-05-10T07:20:11.440Z,948.76
2017-05-10T07:21:13.597Z,948.68
2017-05-10T07:22:13.835Z,948.73
2017-05-10T07:23:13.266Z,948.76
2017-05-10T07:24:14.005Z,948.76
2017-05-10T07:25:13.685Z,948.74
2017-05-10T07:26:14.457Z,948.72
2017-05-10T07:27:13.809Z,948.75
2017-05-10T07:28:11.170Z,948.74
2017-05-10T07:29:12.689Z,948.74
2017-05-10T07:30:14.368Z,948.72
2017-05-10T07:31:13.058Z,948.78
2017-05-10T07:32:13.010Z,948.76
2017-05-10T07:33:13.065Z,948.75
2017-05-10T07:34:13.547Z,948.72
2017-05-10T07:35:13.419Z,948.72
2017-05-10T07:36:13.049Z,948.66
2017-05-10T07:37:12.865Z,948.68
2017-05-10T07:38:12.988Z,948.66
2017-05-10T07:39:14.399Z,948.65
2017-05-10T07:40:13.203Z,948.67
2017-05-10T07:41:13.039Z,948.63
2017-05-10T07:42:13.320Z,948.65
2017-05-10T07:43:15.818Z,948.64
2017-05-10T07:44:12.813Z,948.66
2017-05-10T07:45:13.034Z,948.60
2017-05-10T07:46:13.038Z,948.59
2017-05-10T07:47:13.692Z,948.62
2017-05-10T07:48:13.465Z,948.58
2017-05-10T07:49:13.878Z,948.57
2017-05-10T07:50:13.081Z,948.55
2017-05-10T07:51:13.588Z,948.51
2017-05-10T07:52:13.579Z,948.47
2017-05-10T07:53:13.110Z,948.49
2017-05-10T07:54:11.658Z,948.53
2017-05-10T07:55:13.935Z,948.54
2017-05-10T07:56:11.354Z,948.53
2017-05-10T07:57:12.972Z,948.55
2017-05-10T07:58:14.681Z,948.52
2017-05-10T07:59:21.425Z,948.53
2017-05-10T08:00:15.125Z,948.48
2017-05-10T08:01:10.849Z,948.48
2017-05-10T08:02:14.209Z,948.48
2017-05-10T08:03:13.635Z,948.53
2017-05-10T08:04:13.701Z,948.52
2017-05-10T08:05:13.994Z,948.51
2017-05-10T08:06:11.571Z,948.49
2017-05-10T08:07:12.856Z,948.49
2017-05-10T08:08:12.851Z,948.52
2017-05-10T08:09:13.737Z,948.46
2017-05-10T08:10:14.063Z,948.51
2017-05-10T08:11:13.101Z,948.51
2017-05-10T08:12:10.862Z,948.53
2017-05-10T08:13:13.439Z,948.48
2017-05-10T08:14:13.960Z,948.41
2017-05-10T08:15:13.583Z,948.42
2017-05-10T08:16:13.530Z,948.48
2017-05-10T08:17:13.479Z,948.46
2017-05-10T08:18:09.973Z,948.46
2017-05-10T08:19:13.659Z,948.45
2017-05-10T08:20:14.400Z,948.41
2017-05-10T08:21:13.841Z,948.40
2017-05-10T08:22:12.824Z,948.42
2017-05-10T08:23:12.605Z,948.42
2017-05-10T08:24:14.181Z,948.36
2017-05-10T08:25:11.189Z,948.40
2017-05-10T08:26:11.671Z,948.39
2017-05-10T08:27:13.625Z,948.30
2017-05-10T08:28:13.848Z,948.36
2017-05-10T08:29:12.918Z,948.30
2017-05-10T08:30:13.519Z,948.31
2017-05-10T08:31:10.300Z,948.28
2017-05-10T08:32:13.453Z,948.24
2017-05-10T08:33:13.321Z,948.28
2017-05-10T08:34:13.293Z,948.26
2017-05-10T08:35:11.599Z,948.27
2017-05-10T08:36:13.608Z,948.28
2017-05-10T08:37:13.397Z,948.23
2017-05-10T08:38:13.298Z,948.22
2017-05-10T08:39:14.059Z,948.25
2017-05-10T08:40:13.548Z,948.25
2017-05-10T08:41:13.468Z,948.22
2017-05-10T08:42:14.830Z,948.20
2017-05-10T08:43:13.736Z,948.19
2017-05-10T08:44:14.091Z,948.19
2017-05-10T08:45:12.871Z,948.16
2017-05-10T08:46:12.744Z,948.14
2017-05-10T08:47:13.360Z,948.19
2017-05-10T08:48:13.607Z,948.17
2017-05-10T08:49:13.149Z,948.20
2017-05-10T08:50:13.051Z,948.15
2017-05-10T08:51:13.075Z,948.10
2017-05-10T08:52:14.925Z,948.11
2017-05-10T08:53:19.977Z,948.14
2017-05-10T08:54:12.530Z,948.07
2017-05-10T08:55:14.354Z,948.10
2017-05-10T08:56:13.807Z,948.15
2017-05-10T08:57:14.294Z,948.10
2017-05-10T08:58:13.676Z,948.10
2017-05-10T08:59:15.528Z,948.12
2017-05-10T09:00:13.991Z,948.15
2017-05-10T09:01:14.212Z,948.15
2017-05-10T09:02:13.852Z,948.12
2017-05-10T09:03:12.990Z,948.10
2017-05-10T09:04:13.458Z,948.10
2017-05-10T09:05:13.796Z,948.10
2017-05-10T09:06:12.774Z,948.07
2017-05-10T09:07:12.826Z,948.09
2017-05-10T09:08:13.539Z,948.14
2017-05-10T09:09:15.179Z,948.12
2017-05-10T09:10:13.930Z,948.10
2017-05-10T09:11:12.951Z,948.06
2017-05-10T09:12:14.332Z,948.07
2017-05-10T09:13:13.168Z,948.06
2017-05-10T09:14:13.782Z,948.03
2017-05-10T09:15:12.554Z,948.08
2017-05-10T09:16:13.838Z,948.06
2017-05-10T09:17:13.421Z,948.05
2017-05-10T09:18:10.593Z,948.05
2017-05-10T09:19:14.322Z,948.06
2017-05-10T09:20:14.064Z,948.02
2017-05-10T09:21:13.019Z,948.02
2017-05-10T09:22:15.130Z,948.02
2017-05-10T09:23:13.014Z,948.04
2017-05-10T09:24:12.665Z,948.03
2017-05-10T09:25:13.072Z,947.98
2017-05-10T09:26:11.819Z,948.03
2017-05-10T09:27:13.311Z,948.04
2017-05-10T09:28:13.034Z,948.00
2017-05-10T09:29:11.519Z,948.01
2017-05-10T09:30:13.460Z,947.99
2017-05-10T09:31:13.356Z,947.93
2017-05-10T09:32:15.144Z,947.99
2017-05-10T09:33:15.415Z,947.97
2017-05-10T09:34:13.974Z,948.00
2017-05-10T09:35:12.909Z,948.00
2017-05-10T09:36:13.038Z,948.01
2017-05-10T09:37:11.358Z,947.96
2017-05-10T09:38:13.443Z,947.99
2017-05-10T09:39:14.126Z,948.03
2017-05-10T09:40:13.278Z,947.97
2017-05-10T09:41:13.694Z,947.94
2017-05-10T09:42:13.411Z,947.95
2017-05-10T09:43:14.194Z,947.94
2017-05-10T09:44:13.530Z,947.94
2017-05-10T09:45:14.103Z,947.92
2017-05-10T09:46:13.180Z,947.95
2017-05-10T09:47:14.477Z,947.95
2017-05-10T09:48:14.911Z,947.92
2017-05-10T09:49:13.083Z,947.96
2017-05-10T09:50:12.800Z,947.97
2017-05-10T09:51:13.223Z,947.95
2017-05-10T09:52:12.903Z,947.91
2017-05-10T09:53:13.047Z,947.95
2017-05-10T09:54:15.267Z,947.91
2017-05-10T09:55:12.904Z,947.83
2017-05-10T09:56:14.280Z,947.84
2017-05-10T09:57:13.269Z,947.86
2017-05-10T09:58:15.635Z,947.85
2017-05-10T09:59:12.789Z,947.85
2017-05-10T10:00:12.823Z,947.83
2017-05-10T10:01:10.599Z,947.88
2017-05-10T10:02:14.261Z,947.85
2017-05-10T10:03:13.539Z,947.84
2017-05-10T10:04:14.749Z,947.85
2017-05-10T10:05:13.629Z,947.86
2017-05-10T10:06:14.950Z,947.84
2017-05-10T10:07:12.899Z,947.86
2017-05-10T10:08:13.454Z,947.82
2017-05-10T10:09:14.214Z,947.84
2017-05-10T10:10:13.682Z,947.83
2017-05-10T10:11:14.267Z,947.82
2017-05-10T10:12:13.231Z,947.80
2017-05-10T10:13:12.966Z,947.82
2017-05-10T10:14:12.931Z,947.82
2017-05-10T10:15:13.237Z,947.82
2017-05-10T10:16:18.845Z,947.84
2017-05-10T10:17:12.980Z,947.81
2017-05-10T10:18:13.544Z,947.84
2017-05-10T10:19:15.948Z,947.81
2017-05-10T10:20:13.867Z,947.82
2017-05-10T10:21:13.538Z,947.79
2017-05-10T10:22:13.799Z,947.80
2017-05-10T10:23:13.321Z,947.79
2017-05-10T10:24:14.713Z,947.78
2017-05-10T10:25:14.623Z,947.82
2017-05-10T10:26:13.687Z,947.79
2017-05-10T10:27:13.343Z,947.75
2017-05-10T10:28:13.458Z,947.76
2017-05-10T10:29:10.989Z,947.75
2017-05-10T10:30:14.800Z,947.76
2017-05-10T10:31:13.396Z,947.72
2017-05-10T10:32:13.690Z,947.69
2017-05-10T10:33:14.157Z,947.73
2017-05-10T10:34:14.146Z,947.68
2017-05-10T10:35:15.550Z,947.69
2017-05-10T10:36:13.456Z,947.63
2017-05-10T10:37:15.390Z,947.62
2017-05-10T10:38:13.555Z,947.62
2017-05-10T10:39:10.677Z,947.62
2017-05-10T10:40:13.694Z,947.69
2017-05-10T10:41:18.917Z,947.66
2017-05-10T10:42:13.509Z,947.65
2017-05-10T10:43:13.654Z,947.64
2017-05-10T10:44:13.504Z,947.64
2017-05-10T10:45:14.056Z,947.63
2017-05-10T10:46:13.027Z,947.63
2017-05-10T10:47:13.994Z,947.67
2017-05-10T10:48:13.401Z,947.64
2017-05-10T10:49:14.527Z,947.68
2017-05-10T10:50:22.533Z,947.61
2017-05-10T10:51:14.538Z,947.65
2017-05-10T10:52:13.593Z,947.62
2017-05-10T10:53:14.996Z,947.61
2017-05-10T10:54:14.548Z,947.60
2017-05-10T10:55:14.905Z,947.57
2017-05-10T10:56:13.430Z,947.60
2017-05-10T10:57:15.098Z,947.52
2017-05-10T10:58:15.303Z,947.51
2017-05-10T10:59:13.736Z,947.49
2017-05-10T11:00:14.511Z,947.44
2017-05-10T11:01:14.289Z,947.41
2017-05-10T11:02:14.117Z,947.42
2017-05-10T11:03:13.028Z,947.41
2017-05-10T11:04:13.465Z,947.36
2017-05-10T11:05:14.243Z,947.40
2017-05-10T11:06:13.753Z,947.39
2017-05-10T11:07:14.277Z,947.38
2017-05-10T11:08:10.085Z,947.32
2017-05-10T11:09:14.397Z,947.36
2017-05-10T11:10:13.135Z,947.35
2017-05-10T11:11:13.908Z,947.31
2017-05-10T11:12:14.170Z,947.30
2017-05-10T11:13:13.009Z,947.30
2017-05-10T11:14:12.883Z,947.34
2017-05-10T11:15:13.551Z,947.31
2017-05-10T11:16:13.269Z,947.33
2017-05-10T11:17:13.777Z,947.31
2017-05-10T11:18:15.269Z,947.31
2017-05-10T11:19:13.579Z,947.28
2017-05-10T11:20:13.395Z,947.26
2017-05-10T11:21:14.004Z,947.29
2017-05-10T11:22:13.012Z,947.27
2017-05-10T11:23:13.569Z,947.29
2017-05-10T11:24:14.825Z,947.26
2017-05-10T11:25:12.334Z,947.24
2017-05-10T11:26:13.601Z,947.30
2017-05-10T11:27:14.480Z,947.30
2017-05-10T11:28:13.761Z,947.29
2017-05-10T11:29:13.312Z,947.25
2017-05-10T11:30:13.827Z,947.25
2017-05-10T11:31:13.221Z,947.24
2017-05-10T11:32:13.319Z,947.26
2017-05-10T11:33:14.351Z,947.23
2017-05-10T11:34:12.341Z,947.23
2017-05-10T11:35:14.148Z,947.21
2017-05-10T11:36:13.259Z,947.21
2017-05-10T11:37:13.002Z,947.17
2017-05-10T11:38:13.363Z,947.15
2017-05-10T11:39:14.014Z,947.13
2017-05-10T11:40:12.594Z,947.18
2017-05-10T11:41:13.391Z,947.14
2017-05-10T11:42:13.177Z,947.14
2017-05-10T11:43:13.326Z,947.16
2017-05-10T11:44:13.614Z,947.14
2017-05-10T11:45:13.813Z,947.12
2017-05-10T11:46:14.204Z,947.12
2017-05-10T11:47:13.897Z,947.10
2017-05-10T11:48:15.220Z,947.10
2017-05-10T11:49:14.515Z,947.13
2017-05-10T11:50:12.726Z,947.12
2017-05-10T11:51:14.544Z,947.07
2017-05-10T11:52:13.801Z,947.08
2017-05-10T11:53:13.323Z,947.03
2017-05-10T11:54:14.784Z,947.02
2017-05-10T11:55:13.236Z,947.02
2017-05-10T11:56:13.311Z,946.97
2017-05-10T11:57:11.476Z,947.02
2017-05-10T11:58:13.363Z,947.02
2017-05-10T11:59:13.713Z,946.98
2017-05-10T12:00:13.508Z,946.98
2017-05-10T12:01:15.317Z,947.00
2017-05-10T12:02:13.977Z,947.00
2017-05-10T12:03:13.050Z,946.93
2017-05-10T12:04:12.835Z,946.91
2017-05-10T12:05:12.786Z,946.93
2017-05-10T12:06:12.750Z,946.90
2017-05-10T12:07:13.426Z,946.86
2017-05-10T12:08:13.960Z,946.81
2017-05-10T12:09:13.723Z,946.84
2017-05-10T12:10:13.750Z,946.88
2017-05-10T12:11:13.870Z,946.87
2017-05-10T12:12:13.516Z,946.80
2017-05-10T12:13:13.550Z,946.83
2017-05-10T12:14:13.523Z,946.83
2017-05-10T12:15:13.457Z,946.83
2017-05-10T12:16:11.084Z,946.80
2017-05-10T12:17:15.080Z,946.75
2017-05-10T12:18:13.391Z,946.75
2017-05-10T12:19:13.571Z,946.74
2017-05-10T12:20:14.388Z,946.72
2017-05-10T12:21:13.547Z,946.70
2017-05-10T12:22:13.609Z,946.70
2017-05-10T12:23:13.477Z,946.65
2017-05-10T12:24:14.409Z,946.69
2017-05-10T12:25:13.677Z,946.61
2017-05-10T12:26:14.325Z,946.61
2017-05-10T12:27:13.641Z,946.60
2017-05-10T12:28:13.234Z,946.58